Time;durP1;ratioP1;P1;durP2;ratioP2;P2;SDS_P1;SDS_P2;PMS_P1;PMS_P2;Temp;Humidity;BMP_temperature;BMP_pressure;BME280_temperature;BME280_humidity;BME280_pressure;Samples;Min_cycle;Max_cycle;Signal;HPM_P1;HPM_P2
2022/01/11 00:00:29;;;;;;;8.23;5.38;;;-0.70;99.90;;;;;;5049105;28;20063;-78
2022/01/11 00:02:56;;;;;;;9.13;5.50;;;-0.90;99.90;;;;;;5046143;28;20398;-78
2022/01/11 00:05:33;;;;;;;6.65;4.43;;;-1.00;99.90;;;;;;5051801;28;20425;-77
2022/01/11 00:07:59;;;;;;;13.18;7.82;;;-1.00;99.90;;;;;;5052755;28;20136;-76
2022/01/11 00:12:55;;;;;;;14.48;7.35;;;-1.20;99.90;;;;;;5045537;28;20048;-79
2022/01/11 00:15:22;;;;;;;11.18;6.07;;;-1.10;99.90;;;;;;5049674;28;20108;-77
2022/01/11 00:17:47;;;;;;;7.85;5.05;;;-1.00;99.90;;;;;;5048982;28;20033;-77
2022/01/11 00:20:16;;;;;;;12.25;7.15;;;-0.50;99.90;;;;;;5041752;28;20061;-80
2022/01/11 00:24:29;;;;;;;6.72;4.30;;;-1.10;99.90;;;;;;5052636;28;20134;-78
2022/01/11 00:25:37;;;;;;;7.60;4.65;;;-1.10;99.90;;;;;;5048372;28;20047;-77
2022/01/11 00:28:04;;;;;;;6.18;4.82;;;-1.40;99.90;;;;;;5050731;28;20434;-79
2022/01/11 00:30:33;;;;;;;6.82;5.38;;;-1.40;99.90;;;;;;5050742;28;20444;-82
2022/01/11 00:33:02;;;;;;;6.38;4.22;;;-1.30;99.90;;;;;;5031413;28;20033;-80
2022/01/11 00:35:38;;;;;;;9.82;5.72;;;-1.40;99.90;;;;;;5017245;28;20541;-78
2022/01/11 00:38:05;;;;;;;8.73;7.65;;;-1.40;99.90;;;;;;5051395;28;20048;-81
2022/01/11 00:40:31;;;;;;;6.68;5.15;;;-1.40;99.90;;;;;;5033941;28;20044;-76
2022/01/11 00:42:59;;;;;;;10.40;6.60;;;-1.20;99.90;;;;;;5060933;28;20060;-80
2022/01/11 00:45:26;;;;;;;11.15;6.00;;;-1.40;99.90;;;;;;5036113;28;20081;-83
2022/01/11 00:47:53;;;;;;;9.77;4.32;;;-1.10;99.90;;;;;;5049543;28;20475;-78
2022/01/11 00:50:18;;;;;;;10.82;7.45;;;-1.30;99.90;;;;;;5041688;28;20071;-81
2022/01/11 00:52:44;;;;;;;6.60;5.55;;;-1.50;99.90;;;;;;5046855;28;20707;-76
2022/01/11 00:55:10;;;;;;;9.93;6.43;;;-1.40;99.90;;;;;;5019206;28;20045;-79
2022/01/11 00:57:36;;;;;;;;;;;-1.40;99.90;;;;;;5023535;28;20041;-80
2022/01/11 01:00:08;;;;;;;7.70;3.85;;;-1.20;99.90;;;;;;5078652;28;19927;-80
2022/01/11 01:02:34;;;;;;;4.30;3.83;;;-1.40;99.90;;;;;;5033062;28;20041;-85
2022/01/11 01:05:01;;;;;;;12.48;6.25;;;-1.30;99.90;;;;;;5073681;28;20026;-82
2022/01/11 01:07:26;;;;;;;10.32;6.15;;;-1.30;99.90;;;;;;5031045;28;20506;-79
2022/01/11 01:10:02;;;;;;;5.65;4.45;;;-1.40;99.90;;;;;;5024622;28;20033;-76
2022/01/11 01:12:28;;;;;;;5.77;5.00;;;-1.40;99.90;;;;;;5048194;28;20048;-82
2022/01/11 01:14:55;;;;;;;13.82;5.07;;;-1.60;99.90;;;;;;5035483;28;20140;-82
2022/01/11 01:17:20;;;;;;;8.20;5.57;;;-1.50;99.90;;;;;;5042799;28;20037;-82
2022/01/11 01:19:46;;;;;;;4.63;4.22;;;-0.90;99.90;;;;;;5064337;28;20397;-77
2022/01/11 01:22:12;;;;;;;;;;;-1.60;99.90;;;;;;5036015;28;20477;-78
2022/01/11 01:24:38;;;;;;;7.50;5.03;;;;;;;;;;5061814;28;19917;-80
2022/01/11 01:27:04;;;;;;;;;;;-1.80;99.90;;;;;;5033283;28;20044;-82
2022/01/11 01:29:29;;;;;;;6.45;4.85;;;-1.80;99.90;;;;;;5051633;28;20476;-77
2022/01/11 01:31:55;;;;;;;;;;;-1.70;99.90;;;;;;5033371;28;20037;-77
2022/01/11 01:34:23;;;;;;;13.23;4.93;;;-1.70;99.90;;;;;;5045182;28;19921;-76
2022/01/11 01:36:48;;;;;;;12.38;5.13;;;-1.60;99.90;;;;;;5051252;28;20166;-78
2022/01/11 01:39:14;;;;;;;9.02;5.47;;;-1.70;99.90;;;;;;5026804;28;20044;-78
2022/01/11 01:41:44;;;;;;;12.77;6.53;;;-1.70;99.90;;;;;;5032382;28;20052;-80
2022/01/11 01:44:11;;;;;;;8.85;4.22;;;-1.70;99.90;;;;;;5030881;28;20570;-80
2022/01/11 01:46:36;;;;;;;10.15;5.28;;;-1.70;99.90;;;;;;5048636;28;20045;-80
2022/01/11 01:49:03;;;;;;;8.45;5.07;;;-1.60;99.90;;;;;;5056799;28;20125;-79
2022/01/11 01:51:29;;;;;;;6.63;5.35;;;-1.70;99.90;;;;;;5054767;28;20037;-78
2022/01/11 01:53:55;;;;;;;6.40;3.35;;;-1.60;99.90;;;;;;5050340;28;20047;-75
2022/01/11 01:56:22;;;;;;;4.82;3.40;;;-1.60;99.90;;;;;;5048589;28;20045;-81
2022/01/11 01:58:49;;;;;;;7.05;4.80;;;-1.60;99.90;;;;;;5032117;28;20041;-75
2022/01/11 02:01:15;;;;;;;6.00;5.13;;;-1.60;99.90;;;;;;5051765;28;20056;-81
2022/01/11 02:03:42;;;;;;;;;;;-1.60;99.90;;;;;;5051749;28;20407;-79
2022/01/11 02:06:10;;;;;;;4.90;3.90;;;-1.60;99.90;;;;;;5079684;28;19917;-78
2022/01/11 02:08:37;;;;;;;15.38;5.68;;;-1.60;99.90;;;;;;5051459;28;20128;-78
2022/01/11 02:11:03;;;;;;;7.80;5.57;;;-1.60;99.90;;;;;;5051038;28;20095;-82
2022/01/11 02:13:29;;;;;;;13.13;5.45;;;-1.60;99.90;;;;;;5038640;28;20048;-80
2022/01/11 02:15:56;;;;;;;18.25;7.22;;;-1.50;99.90;;;;;;5031805;28;20049;-79
2022/01/11 02:18:25;;;;;;;8.25;6.63;;;-1.60;99.90;;;;;;5051797;28;20083;-84
2022/01/11 02:20:52;;;;;;;10.77;7.30;;;-1.50;99.90;;;;;;5034998;28;20128;-80
2022/01/11 02:23:20;;;;;;;12.85;6.00;;;-1.50;99.90;;;;;;5049491;28;20059;-78
2022/01/11 02:25:46;;;;;;;8.38;6.88;;;-1.50;99.90;;;;;;5023436;28;20037;-78
2022/01/11 02:28:14;;;;;;;6.25;3.80;;;-1.50;99.90;;;;;;5050646;28;20036;-79
2022/01/11 02:30:40;;;;;;;7.47;5.03;;;-1.50;99.90;;;;;;5055231;28;20048;-78
2022/01/11 02:33:15;;;;;;;8.82;5.82;;;-1.30;99.90;;;;;;5038060;28;20441;-77
2022/01/11 02:35:48;;;;;;;18.42;7.95;;;-1.40;99.90;;;;;;5028125;28;20040;-75
2022/01/11 02:38:14;;;;;;;9.63;4.43;;;-1.40;99.90;;;;;;5048255;28;20848;-77
2022/01/11 02:40:40;;;;;;;6.55;5.80;;;-1.40;99.90;;;;;;5039586;28;20040;-81
2022/01/11 02:43:06;;;;;;;11.23;8.02;;;-1.30;99.90;;;;;;5047294;28;20061;-81
2022/01/11 02:45:32;;;;;;;15.57;7.43;;;-1.30;99.90;;;;;;5041974;28;20045;-81
2022/01/11 02:47:57;;;;;;;7.15;6.07;;;-1.30;99.90;;;;;;5048228;28;20036;-81
2022/01/11 02:50:24;;;;;;;8.80;5.80;;;-1.30;99.90;;;;;;5010291;28;20037;-80
2022/01/11 02:52:50;;;;;;;9.45;5.28;;;-1.20;99.90;;;;;;5048153;28;20036;-80
2022/01/11 02:55:16;;;;;;;14.48;7.78;;;-1.20;99.90;;;;;;5046805;28;20052;-76
2022/01/11 02:57:42;;;;;;;13.73;6.63;;;-1.20;99.90;;;;;;5051005;28;20060;-79
2022/01/11 03:00:10;;;;;;;;;;;-1.20;99.90;;;;;;5027850;28;20567;-80
2022/01/11 03:02:36;;;;;;;7.65;4.38;;;-1.20;99.90;;;;;;5050052;28;19928;-75
2022/01/11 03:05:04;;;;;;;10.13;5.30;;;-1.10;99.90;;;;;;5046762;28;20049;-82
2022/01/11 03:07:30;;;;;;;6.50;5.30;;;-1.10;99.90;;;;;;5049732;28;20058;-80
2022/01/11 03:12:25;;;;;;;16.58;7.75;;;-1.10;99.90;;;;;;5066231;28;20409;-78
2022/01/11 03:14:50;;;;;;;5.88;5.15;;;-1.00;99.90;;;;;;5048978;28;20048;-77
2022/01/11 03:17:16;;;;;;;20.33;6.72;;;-1.00;99.90;;;;;;5049936;28;20040;-76
2022/01/11 03:19:42;;;;;;;;;;;-1.00;99.90;;;;;;5051197;28;20170;-82
2022/01/11 03:22:07;;;;;;;10.13;6.07;;;0.30;99.90;;;;;;5016564;28;19925;-74
2022/01/11 03:24:33;;;;;;;15.30;5.35;;;-0.20;99.90;;;;;;5048141;28;20512;-79
2022/01/11 03:26:59;;;;;;;15.93;6.25;;;-0.90;99.90;;;;;;5041747;28;20045;-79
2022/01/11 03:29:24;;;;;;;;;;;-0.90;99.90;;;;;;5046814;28;20041;-77
2022/01/11 03:31:51;;;;;;;12.80;6.25;;;-0.90;99.90;;;;;;5071411;28;19924;-79
2022/01/11 03:34:19;;;;;;;9.18;7.47;;;-0.90;99.90;;;;;;5046552;28;20530;-78
2022/01/11 03:36:45;;;;;;;18.35;6.93;;;-0.90;99.90;;;;;;5028321;28;20049;-78
2022/01/11 03:39:11;;;;;;;6.82;6.13;;;-0.80;99.90;;;;;;5032440;28;20049;-80
2022/01/11 03:41:37;;;;;;;10.70;7.53;;;-0.80;99.90;;;;;;5041726;28;20068;-81
2022/01/11 03:44:03;;;;;;;12.27;6.75;;;-0.80;99.90;;;;;;5041527;28;20123;-76
2022/01/11 03:46:29;;;;;;;10.50;6.13;;;-0.80;99.90;;;;;;5040684;28;20037;-79
2022/01/11 03:48:55;;;;;;;9.77;6.97;;;-0.80;99.90;;;;;;5048030;28;20052;-80
2022/01/11 03:51:20;;;;;;;;;;;-0.80;99.90;;;;;;5028202;28;20048;-81
2022/01/11 03:54:42;;;;;;;7.88;5.90;;;-0.80;99.90;;;;;;5048459;28;19994;-79
2022/01/11 03:56:36;;;;;;;12.45;6.05;;;-0.80;99.90;;;;;;5033329;28;20045;-78
2022/01/11 03:59:06;;;;;;;10.40;6.43;;;-0.80;99.90;;;;;;5039443;28;20041;-78
2022/01/11 04:01:36;;;;;;;10.27;6.57;;;-0.50;99.90;;;;;;5039753;28;20041;-79
2022/01/11 04:04:03;;;;;;;9.80;6.85;;;-0.70;99.90;;;;;;5048981;28;20070;-79
2022/01/11 04:06:29;;;;;;;14.35;9.50;;;-0.70;99.90;;;;;;5047012;28;20453;-79
2022/01/11 04:08:55;;;;;;;;;;;-0.80;99.90;;;;;;5045808;28;20096;-79
2022/01/11 04:11:21;;;;;;;8.65;7.80;;;-0.80;99.90;;;;;;5029312;28;20390;-78
2022/01/11 04:13:47;;;;;;;10.05;6.32;;;-0.80;99.90;;;;;;5022779;28;20041;-78
2022/01/11 04:16:13;;;;;;;18.30;8.80;;;-0.80;99.90;;;;;;5042300;28;20535;-81
2022/01/11 04:18:39;;;;;;;9.68;5.63;;;-0.80;99.90;;;;;;5051012;28;20070;-76
2022/01/11 04:21:05;;;;;;;16.35;5.95;;;-0.80;99.90;;;;;;5035776;28;20135;-77
2022/01/11 04:23:31;;;;;;;8.30;5.68;;;-0.90;99.90;;;;;;5053936;28;20440;-76
2022/01/11 04:25:58;;;;;;;9.77;4.55;;;-0.80;99.90;;;;;;5013768;28;20532;-82
2022/01/11 04:28:25;;;;;;;35.42;7.60;;;-0.80;99.90;;;;;;5041473;28;20562;-77
2022/01/11 04:30:52;;;;;;;6.22;4.90;;;-0.80;99.90;;;;;;5031221;28;20049;-79
2022/01/11 04:33:18;;;;;;;15.70;7.45;;;-0.80;99.90;;;;;;5047866;28;20056;-78
2022/01/11 04:35:48;;;;;;;;;;;-0.80;99.90;;;;;;5026690;28;20132;-77
2022/01/11 04:38:16;;;;;;;10.65;4.85;;;-0.80;99.90;;;;;;5047346;28;20271;-77
2022/01/11 04:40:42;;;;;;;14.07;7.40;;;-0.80;99.90;;;;;;5040278;28;20496;-78
2022/01/11 04:43:08;;;;;;;11.88;6.55;;;-0.80;99.90;;;;;;5049016;28;20136;-79
2022/01/11 04:45:34;;;;;;;23.08;10.82;;;-0.80;99.90;;;;;;5036618;28;20315;-75
2022/01/11 04:48:00;;;;;;;9.05;5.25;;;-0.80;99.90;;;;;;5070250;28;20037;-80
2022/01/11 04:50:27;;;;;;;15.30;8.52;;;-0.80;99.90;;;;;;5044654;28;20558;-80
2022/01/11 04:52:54;;;;;;;8.48;6.90;;;-0.80;99.90;;;;;;5048806;28;20033;-76
2022/01/11 04:55:20;;;;;;;9.85;5.82;;;-0.80;99.90;;;;;;5043574;28;20455;-83
2022/01/11 04:57:46;;;;;;;7.25;6.30;;;0.40;99.90;;;;;;5052133;28;20043;-80
2022/01/11 05:00:15;;;;;;;14.93;6.97;;;-0.80;99.90;;;;;;5041816;28;20120;-82
2022/01/11 05:02:41;;;;;;;16.77;5.72;;;-0.80;99.90;;;;;;5044080;28;20037;-82
2022/01/11 05:05:07;;;;;;;16.80;6.65;;;-0.90;99.90;;;;;;5030091;28;20094;-80
2022/01/11 05:07:33;;;;;;;;;;;-0.90;99.90;;;;;;5039518;28;20045;-82
2022/01/11 05:09:58;;;;;;;16.35;7.25;;;-0.90;99.90;;;;;;5051331;28;19920;-78
2022/01/11 05:12:24;;;;;;;;;;;-0.90;99.90;;;;;;5049086;28;20124;-75
2022/01/11 05:14:50;;;;;;;12.77;7.63;;;-0.90;99.90;;;;;;5040950;28;19917;-74
2022/01/11 05:17:16;;;;;;;8.43;6.03;;;-0.90;99.90;;;;;;5034923;28;20041;-78
2022/01/11 05:19:41;;;;;;;30.42;7.40;;;-0.90;99.90;;;;;;5052203;28;20045;-77
2022/01/11 05:22:07;;;;;;;;;;;-0.90;99.90;;;;;;5049418;28;20045;-79
2022/01/11 05:24:33;;;;;;;10.23;5.53;;;-0.90;99.90;;;;;;5048611;28;19916;-77
2022/01/11 05:26:58;;;;;;;9.20;7.45;;;-0.90;99.90;;;;;;5028630;28;20041;-80
2022/01/11 05:29:24;;;;;;;8.90;6.07;;;-1.00;99.90;;;;;;5052640;28;20033;-82
2022/01/11 05:31:50;;;;;;;8.98;6.18;;;-0.90;99.90;;;;;;5032948;28;20034;-80
2022/01/11 05:34:16;;;;;;;12.23;6.90;;;-0.80;99.90;;;;;;5042598;28;20052;-78
2022/01/11 05:36:41;;;;;;;9.73;7.53;;;-0.90;99.90;;;;;;5046896;28;20087;-78
2022/01/11 05:39:07;;;;;;;16.80;7.28;;;-0.80;99.90;;;;;;5031881;28;20049;-79
2022/01/11 05:41:33;;;;;;;;;;;-0.70;99.90;;;;;;5023224;28;20041;-75
2022/01/11 05:43:59;;;;;;;13.00;7.95;;;-0.80;99.90;;;;;;5084496;28;19927;-74
2022/01/11 05:46:26;;;;;;;10.35;5.20;;;-0.80;99.90;;;;;;5024350;28;20049;-79
2022/01/11 05:48:52;;;;;;;12.85;6.80;;;1.10;99.90;;;;;;5032238;28;20069;-78
2022/01/11 05:51:18;;;;;;;8.98;5.38;;;-0.80;99.90;;;;;;5032884;28;20123;-79
2022/01/11 05:53:44;;;;;;;;;;;-0.80;99.90;;;;;;5048854;28;20102;-74
2022/01/11 05:56:10;;;;;;;10.48;5.28;;;-0.70;99.90;;;;;;5076336;28;20353;-76
2022/01/11 05:58:36;;;;;;;10.27;6.60;;;-0.70;99.90;;;;;;5046065;28;20500;-81
2022/01/11 06:01:02;;;;;;;5.22;3.83;;;-0.70;99.90;;;;;;5048813;28;20037;-76
2022/01/11 06:03:28;;;;;;;10.75;7.35;;;-0.70;99.90;;;;;;5063694;28;20040;-77
2022/01/11 06:05:53;;;;;;;16.98;10.02;;;-0.20;99.90;;;;;;5034395;28;20029;-77
2022/01/11 06:08:20;;;;;;;9.32;5.97;;;-0.70;99.90;;;;;;5030856;28;20148;-83
2022/01/11 06:10:46;;;;;;;11.60;6.72;;;-0.30;99.90;;;;;;5052480;28;20033;-76
2022/01/11 06:13:12;;;;;;;13.52;6.82;;;-0.70;99.90;;;;;;5019232;28;20037;-79
2022/01/11 06:15:38;;;;;;;8.07;6.40;;;-0.60;99.90;;;;;;5053193;28;20033;-75
2022/01/11 06:18:04;;;;;;;;;;;-0.60;99.90;;;;;;5050450;28;20128;-83
2022/01/11 06:20:30;;;;;;;4.15;3.47;;;0.50;99.90;;;;;;5035123;28;19923;-82
2022/01/11 06:22:56;;;;;;;;;;;-0.70;99.90;;;;;;5030005;28;20037;-79
2022/01/11 06:25:21;;;;;;;9.77;7.20;;;-0.70;99.90;;;;;;5040799;28;19966;-79
2022/01/11 06:27:47;;;;;;;;;;;-0.70;99.90;;;;;;5054705;28;20041;-81
2022/01/11 06:30:15;;;;;;;10.63;6.10;;;-0.70;99.90;;;;;;5049396;28;20282;-79
2022/01/11 06:32:43;;;;;;;7.25;6.10;;;-0.70;99.90;;;;;;5050875;28;20072;-79
2022/01/11 06:35:11;;;;;;;13.68;5.38;;;-0.70;99.90;;;;;;5028428;28;20045;-80
2022/01/11 06:37:37;;;;;;;9.43;4.47;;;-0.70;99.90;;;;;;5035773;28;20039;-80
2022/01/11 06:40:07;;;;;;;9.55;7.93;;;-0.70;99.90;;;;;;5065766;28;20479;-83
2022/01/11 06:42:33;;;;;;;7.60;6.38;;;-0.70;99.90;;;;;;5012885;28;20033;-80
2022/01/11 06:44:58;;;;;;;15.48;8.30;;;-0.70;99.90;;;;;;5051172;28;20128;-83
2022/01/11 06:47:24;;;;;;;14.45;6.63;;;-0.70;99.90;;;;;;5050542;28;20163;-82
2022/01/11 06:49:50;;;;;;;13.98;7.97;;;-0.70;99.90;;;;;;5050564;28;20132;-83
2022/01/11 06:52:15;;;;;;;11.50;6.13;;;-0.70;99.90;;;;;;5047004;28;20554;-83
2022/01/11 06:54:42;;;;;;;11.85;7.35;;;-0.70;99.90;;;;;;5033997;28;20423;-80
2022/01/11 06:57:09;;;;;;;6.32;5.45;;;-0.70;99.90;;;;;;5048839;28;20084;-83
2022/01/11 07:02:35;;;;;;;10.48;6.28;;;-0.70;99.90;;;;;;5038809;28;20127;-81
2022/01/11 07:05:01;;;;;;;11.73;6.10;;;-0.90;99.90;;;;;;5051380;28;20124;-81
2022/01/11 07:07:27;;;;;;;16.88;8.15;;;0.90;99.90;;;;;;5003637;28;20444;-80
2022/01/11 07:09:53;;;;;;;23.88;6.18;;;-0.70;99.90;;;;;;5047840;28;20052;-81
2022/01/11 07:12:18;;;;;;;9.48;7.57;;;-0.60;99.90;;;;;;5057303;28;20095;-83
2022/01/11 07:14:44;;;;;;;8.13;7.22;;;0.80;99.90;;;;;;5050321;28;20045;-82
2022/01/11 07:17:10;;;;;;;8.52;6.30;;;-0.70;99.90;;;;;;5052838;28;20045;-81
2022/01/11 07:19:37;;;;;;;17.48;6.13;;;0.10;99.90;;;;;;5028589;28;20547;-80
2022/01/11 07:22:03;;;;;;;6.18;5.10;;;0.50;99.90;;;;;;5051153;28;20049;-82
2022/01/11 07:24:29;;;;;;;16.17;6.18;;;-0.70;99.90;;;;;;5040909;28;20049;-83
2022/01/11 07:26:55;;;;;;;11.55;7.07;;;0.60;99.90;;;;;;5043134;28;20037;-81
2022/01/11 07:29:21;;;;;;;;;;;-0.70;99.90;;;;;;5048140;28;20037;-78
2022/01/11 07:31:47;;;;;;;10.00;6.97;;;-0.60;99.90;;;;;;5072721;28;20282;-82
2022/01/11 07:34:12;;;;;;;5.60;5.13;;;0.10;99.90;;;;;;5031131;28;20048;-79
2022/01/11 07:36:40;;;;;;;7.82;6.30;;;-0.60;99.90;;;;;;5022237;28;20068;-80
2022/01/11 07:39:06;;;;;;;6.90;5.85;;;-0.60;99.90;;;;;;5030686;28;20048;-77
2022/01/11 07:41:31;;;;;;;17.25;7.40;;;-0.60;99.90;;;;;;5029869;28;20040;-77
2022/01/11 07:43:57;;;;;;;9.55;5.28;;;-0.60;99.90;;;;;;5028745;28;20080;-79
2022/01/11 07:46:26;;;;;;;8.25;5.38;;;1.10;99.90;;;;;;5043458;28;20474;-80
2022/01/11 07:48:51;;;;;;;7.82;5.65;;;0.20;99.90;;;;;;5023205;28;20033;-80
2022/01/11 07:51:17;;;;;;;14.95;6.40;;;-0.70;99.90;;;;;;5059474;28;20509;-78
2022/01/11 07:53:43;;;;;;;18.98;7.05;;;-0.60;99.90;;;;;;5072617;28;20524;-79
2022/01/11 07:56:09;;;;;;;9.70;6.28;;;-0.60;99.90;;;;;;5032708;28;20048;-79
2022/01/11 07:58:35;;;;;;;10.00;7.47;;;-0.60;99.90;;;;;;5079659;28;20051;-80
2022/01/11 08:01:00;;;;;;;12.05;5.22;;;-0.60;99.90;;;;;;5037443;28;20044;-78
2022/01/11 08:03:26;;;;;;;21.70;6.53;;;-0.50;99.90;;;;;;5042526;28;20100;-77
2022/01/11 08:05:53;;;;;;;15.93;6.05;;;-0.60;99.90;;;;;;5039697;28;20485;-78
2022/01/11 08:08:19;;;;;;;13.55;8.07;;;-0.50;99.90;;;;;;5036001;28;20041;-80
2022/01/11 08:10:45;;;;;;;;;;;0.70;99.90;;;;;;5038842;28;20348;-77
2022/01/11 08:13:11;;;;;;;6.80;4.38;;;-0.40;99.90;;;;;;5038988;28;19991;-78
2022/01/11 08:15:37;;;;;;;22.58;6.93;;;-0.20;99.90;;;;;;5031258;28;20045;-76
2022/01/11 08:18:08;;;;;;;6.65;5.22;;;0.40;99.90;;;;;;5052934;28;20037;-77
2022/01/11 08:20:34;;;;;;;12.88;7.47;;;-0.40;99.90;;;;;;5049124;28;20467;-79
2022/01/11 08:22:59;;;;;;;21.00;7.75;;;-0.40;99.90;;;;;;5044011;28;20041;-76
2022/01/11 08:25:25;;;;;;;12.38;7.35;;;-0.40;99.90;;;;;;5032674;28;20056;-79
2022/01/11 08:27:51;;;;;;;26.95;7.88;;;-0.40;99.90;;;;;;5046661;28;20065;-78
2022/01/11 08:30:17;;;;;;;8.35;6.22;;;-0.40;99.90;;;;;;5066506;28;20052;-79
2022/01/11 08:32:43;;;;;;;;;;;0.20;99.90;;;;;;5049842;28;20049;-77
2022/01/11 08:35:24;;;;;;;12.60;5.88;;;-0.40;99.90;;;;;;5048223;28;19928;-83
2022/01/11 08:38:06;;;;;;;10.45;5.60;;;-0.30;99.90;;;;;;5063129;28;20087;-82
2022/01/11 08:40:50;;;;;;;8.52;6.47;;;-0.20;99.90;;;;;;5044687;28;20080;-82
2022/01/11 08:43:22;;;;;;;8.63;5.13;;;-0.40;99.90;;;;;;5019984;28;20044;-83
2022/01/11 08:45:48;;;;;;;17.15;7.38;;;-0.30;99.90;;;;;;5031212;28;20049;-81
2022/01/11 08:48:13;;;;;;;8.80;7.28;;;-0.30;99.90;;;;;;5017496;28;20550;-79
2022/01/11 08:50:39;;;;;;;9.95;6.72;;;-0.30;99.90;;;;;;5033416;28;20041;-82
2022/01/11 08:53:06;;;;;;;18.88;9.38;;;-0.30;99.90;;;;;;5023307;28;20041;-81
2022/01/11 08:55:32;;;;;;;8.90;5.65;;;-0.30;99.90;;;;;;5037684;28;20041;-80
2022/01/11 08:57:58;;;;;;;7.75;5.88;;;-0.30;99.90;;;;;;5046344;28;20067;-80
2022/01/11 09:00:24;;;;;;;14.57;9.30;;;-0.20;99.90;;;;;;5042701;28;20040;-78
2022/01/11 09:02:51;;;;;;;13.73;8.40;;;-0.20;99.90;;;;;;5045321;28;20691;-80
2022/01/11 09:05:19;;;;;;;10.45;7.25;;;-0.20;99.90;;;;;;5043774;28;20045;-80
2022/01/11 09:07:45;;;;;;;12.38;7.78;;;-0.20;99.90;;;;;;5049194;28;20053;-80
2022/01/11 09:10:12;;;;;;;;;;;-0.20;99.90;;;;;;5028204;28;20045;-80
2022/01/11 09:12:38;;;;;;;7.37;4.23;;;-0.20;99.90;;;;;;5048574;28;19956;-80
2022/01/11 09:15:05;;;;;;;;;;;0.20;99.90;;;;;;5031864;28;20320;-78
2022/01/11 09:17:30;;;;;;;10.95;6.03;;;-0.20;99.90;;;;;;5058366;28;19924;-80
2022/01/11 09:19:56;;;;;;;7.90;5.30;;;-0.20;99.90;;;;;;5029994;28;20184;-81
2022/01/11 09:22:22;;;;;;;16.88;6.47;;;-0.10;99.90;;;;;;5028354;28;20053;-78
2022/01/11 09:24:48;;;;;;;12.18;7.38;;;-0.10;99.90;;;;;;5046755;28;20045;-82
2022/01/11 09:27:14;;;;;;;18.17;8.43;;;-0.10;99.90;;;;;;5048348;28;20120;-78
2022/01/11 09:29:41;;;;;;;;;;;0.80;99.90;;;;;;5050089;28;20041;-81
2022/01/11 09:32:08;;;;;;;13.80;7.93;;;0.10;99.90;;;;;;5057999;28;20395;-81
2022/01/11 09:34:37;;;;;;;10.35;5.05;;;-0.10;99.90;;;;;;5050035;28;20056;-81
2022/01/11 09:37:03;;;;;;;4.97;4.30;;;-0.10;99.90;;;;;;5044990;28;20491;-80
2022/01/11 09:39:29;;;;;;;8.10;6.10;;;-0.10;99.90;;;;;;5050271;28;20048;-80
2022/01/11 09:41:58;;;;;;;16.95;6.50;;;-0.10;99.90;;;;;;5048254;28;20055;-79
2022/01/11 09:44:24;;;;;;;13.82;6.22;;;0.00;99.90;;;;;;5039916;28;20049;-80
2022/01/11 09:46:50;;;;;;;7.35;5.22;;;0.20;99.90;;;;;;5033154;28;20125;-80
2022/01/11 09:49:16;;;;;;;13.05;4.15;;;0.10;99.90;;;;;;5045426;28;20107;-80
2022/01/11 09:51:41;;;;;;;9.52;6.68;;;0.00;99.90;;;;;;5044007;28;20042;-80
2022/01/11 09:54:12;;;;;;;7.57;4.57;;;0.10;99.90;;;;;;5045248;28;20055;-79
2022/01/11 09:56:38;;;;;;;5.68;4.90;;;0.10;99.90;;;;;;5048534;28;20076;-77
2022/01/11 09:59:06;;;;;;;11.25;5.55;;;0.10;99.90;;;;;;5048417;28;20041;-77
2022/01/11 10:01:32;;;;;;;12.43;5.00;;;0.10;99.90;;;;;;5049867;28;21784;-76
2022/01/11 10:04:13;;;;;;;7.40;4.75;;;0.10;99.90;;;;;;5047773;28;20052;-76
2022/01/11 10:06:42;;;;;;;9.63;5.13;;;0.90;99.90;;;;;;5044702;28;20482;-79
2022/01/11 10:09:16;;;;;;;6.40;5.07;;;0.10;99.90;;;;;;5038953;28;20056;-76
2022/01/11 10:11:44;;;;;;;9.23;5.97;;;0.10;99.90;;;;;;5046759;28;20088;-76
2022/01/11 10:14:31;;;;;;;8.98;5.57;;;0.10;99.90;;;;;;5039099;28;20049;-76
2022/01/11 10:17:05;;;;;;;8.98;6.13;;;0.10;99.90;;;;;;5045468;28;20111;-80
2022/01/11 10:19:31;;;;;;;16.85;5.65;;;0.10;99.90;;;;;;5036501;28;20055;-79
2022/01/11 10:21:57;;;;;;;10.10;5.50;;;0.60;99.90;;;;;;5019160;28;20045;-82
2022/01/11 10:24:35;;;;;;;;;;;0.10;99.90;;;;;;5053495;28;20051;-81
2022/01/11 10:27:04;;;;;;;12.70;4.75;;;0.20;99.90;;;;;;5036917;28;19924;-77
2022/01/11 10:29:32;;;;;;;11.88;3.95;;;0.20;99.90;;;;;;5049026;28;20055;-80
2022/01/11 10:32:01;;;;;;;9.38;6.88;;;0.20;99.90;;;;;;5049060;28;20120;-80
2022/01/11 10:34:30;;;;;;;9.82;6.22;;;0.20;99.90;;;;;;5027477;28;20037;-79
2022/01/11 10:36:57;;;;;;;10.63;5.60;;;0.20;99.90;;;;;;5045536;28;20057;-80
2022/01/11 10:39:35;;;;;;;5.43;4.43;;;0.20;99.90;;;;;;5059588;28;20423;-79
2022/01/11 10:42:02;;;;;;;6.55;5.03;;;0.20;99.90;;;;;;5045677;28;20079;-80
2022/01/11 10:44:55;;;;;;;16.45;5.72;;;0.20;99.90;;;;;;5034652;28;20082;-79
2022/01/11 10:47:30;;;;;;;8.63;5.30;;;0.20;99.90;;;;;;5047496;28;20079;-77
2022/01/11 10:49:59;;;;;;;10.38;6.13;;;0.20;99.90;;;;;;5042116;28;20045;-77
2022/01/11 10:52:28;;;;;;;9.13;6.18;;;0.20;99.90;;;;;;5039331;28;20041;-79
2022/01/11 10:54:55;;;;;;;9.98;5.30;;;0.20;99.90;;;;;;5029658;28;20045;-78
2022/01/11 10:57:26;;;;;;;8.57;4.18;;;0.20;99.90;;;;;;5045173;28;20049;-79
2022/01/11 11:00:04;;;;;;;8.27;4.97;;;0.30;99.90;;;;;;5050881;28;20053;-82
2022/01/11 11:02:30;;;;;;;9.23;6.15;;;0.30;99.90;;;;;;5031807;28;20057;-79
2022/01/11 11:04:58;;;;;;;11.32;5.93;;;0.40;99.90;;;;;;5045770;28;20048;-79
2022/01/11 11:07:26;;;;;;;7.25;6.18;;;0.40;99.90;;;;;;5039732;28;20033;-77
2022/01/11 11:09:51;;;;;;;10.32;5.85;;;0.70;99.90;;;;;;5047697;28;20540;-78
2022/01/11 11:12:21;;;;;;;7.90;5.47;;;0.70;99.90;;;;;;5046116;28;20033;-82
2022/01/11 11:14:48;;;;;;;5.10;4.60;;;0.80;99.90;;;;;;5027607;28;20120;-79
2022/01/11 11:17:30;;;;;;;9.50;6.25;;;1.00;99.90;;;;;;5045945;28;20055;-79
2022/01/11 11:20:08;;;;;;;6.10;3.03;;;1.20;99.90;;;;;;5038857;28;20049;-79
2022/01/11 11:22:34;;;;;;;14.20;5.50;;;1.40;99.90;;;;;;5030780;28;20042;-82
2022/01/11 11:25:02;;;;;;;6.15;3.78;;;1.60;99.90;;;;;;5034628;28;20037;-81
2022/01/11 11:27:30;;;;;;;10.13;5.85;;;1.70;99.90;;;;;;5054471;28;20071;-79
2022/01/11 11:29:57;;;;;;;8.40;6.53;;;2.00;99.90;;;;;;5054458;28;20053;-77
2022/01/11 11:32:23;;;;;;;6.43;4.57;;;2.00;99.90;;;;;;5069242;28;20052;-74
2022/01/11 11:34:50;;;;;;;12.90;6.25;;;2.10;99.90;;;;;;5049249;28;20103;-81
2022/01/11 11:37:31;;;;;;;4.80;4.18;;;2.30;99.90;;;;;;5048653;28;20049;-81
2022/01/11 11:40:05;;;;;;;13.10;4.45;;;3.20;99.90;;;;;;5035847;28;20567;-80
2022/01/11 11:42:32;;;;;;;13.40;5.53;;;2.40;99.90;;;;;;5049910;28;20038;-80
2022/01/11 11:44:59;;;;;;;10.50;5.70;;;3.30;99.90;;;;;;5035169;28;20094;-79
2022/01/11 11:47:34;;;;;;;8.77;5.07;;;2.50;99.90;;;;;;5018370;28;20697;-79
2022/01/11 11:50:05;;;;;;;9.48;4.88;;;2.90;99.90;;;;;;5068597;28;20033;-81
2022/01/11 11:52:38;;;;;;;15.57;5.72;;;2.40;99.90;;;;;;5047044;28;20041;-81
2022/01/11 11:55:08;;;;;;;10.18;6.22;;;2.40;99.90;;;;;;5033734;28;20103;-80
2022/01/11 11:57:36;;;;;;;9.63;6.00;;;2.30;99.90;;;;;;5046940;28;20049;-79
2022/01/11 12:00:19;;;;;;;7.32;4.25;;;3.50;99.90;;;;;;5041263;28;20079;-77
2022/01/11 12:02:51;;;;;;;8.55;4.28;;;2.20;99.90;;;;;;5052696;28;20492;-80
2022/01/11 12:05:47;;;;;;;13.77;6.97;;;2.20;99.90;;;;;;5055423;28;20047;-78
2022/01/11 12:08:41;;;;;;;10.20;4.97;;;2.20;99.90;;;;;;5034717;28;20138;-80
2022/01/11 12:11:14;;;;;;;6.90;4.30;;;2.10;99.90;;;;;;5073796;28;20098;-80
2022/01/11 12:13:55;;;;;;;10.32;4.78;;;2.10;99.90;;;;;;5041395;28;20068;-79
2022/01/11 12:16:23;;;;;;;11.88;6.88;;;2.10;99.90;;;;;;5075855;28;20722;-84
2022/01/11 12:18:59;;;;;;;7.93;5.13;;;2.10;99.90;;;;;;5047028;28;20152;-81
2022/01/11 12:21:29;;;;;;;13.53;5.20;;;2.10;99.90;;;;;;5043915;28;20056;-81
2022/01/11 12:23:57;;;;;;;10.48;5.72;;;2.00;99.90;;;;;;5051752;28;20095;-81
2022/01/11 12:26:25;;;;;;;11.80;6.43;;;2.30;99.90;;;;;;5050094;28;20033;-84
2022/01/11 12:29:22;;;;;;;15.38;7.18;;;2.10;99.90;;;;;;5052000;28;20912;-81
2022/01/11 12:31:52;;;;;;;5.40;3.20;;;2.10;99.90;;;;;;5055579;28;20127;-81
2022/01/11 12:34:18;;;;;;;10.45;5.32;;;2.10;99.90;;;;;;5051484;28;20056;-81
2022/01/11 12:37:03;;;;;;;6.57;5.07;;;2.10;99.90;;;;;;5034334;28;20040;-79
2022/01/11 12:39:32;;;;;;;8.85;5.22;;;2.10;99.90;;;;;;5032853;28;20075;-79
2022/01/11 12:41:59;;;;;;;8.25;5.30;;;2.10;99.90;;;;;;5073891;28;20042;-80
2022/01/11 12:46:59;;;;;;;9.80;4.93;;;2.20;99.90;;;;;;5042736;28;20495;-79
2022/01/11 12:49:29;;;;;;;13.18;4.82;;;2.20;99.90;;;;;;5044230;28;20040;-76
2022/01/11 12:52:08;;;;;;;14.63;4.53;;;2.20;99.90;;;;;;5043697;28;20114;-79
2022/01/11 12:54:51;;;;;;;13.00;5.20;;;2.20;99.90;;;;;;5043811;28;20494;-79
2022/01/11 12:57:22;;;;;;;6.47;4.68;;;2.50;99.90;;;;;;5040712;28;20053;-80
2022/01/11 13:00:02;;;;;;;13.35;7.53;;;2.30;99.90;;;;;;5045120;28;20429;-80
2022/01/11 13:02:31;;;;;;;8.10;4.63;;;2.30;99.90;;;;;;5044046;28;20049;-79
2022/01/11 13:05:04;;;;;;;6.68;4.90;;;2.40;99.90;;;;;;5039676;28;20068;-76
2022/01/11 13:07:31;;;;;;;9.70;5.30;;;2.40;99.90;;;;;;5044419;28;20076;-82